Time;durP1;ratioP1;P1;durP2;ratioP2;P2;SDS_P1;SDS_P2;PMS_P1;PMS_P2;Temp;Humidity;BMP_temperature;BMP_pressure;BME280_temperature;BME280_humidity;BME280_pressure;Samples;Min_cycle;Max_cycle;Signal;HPM_P1;HPM_P2
2023/01/30 00:00:44;;;;;;;;;;;6.50;99.90;;;;;;5114327;28;19955;-54
2023/01/30 00:03:10;;;;;;;;;;;6.50;99.90;;;;;;5114225;28;19917;-55
2023/01/30 00:05:35;;;;;;;;;;;6.60;99.90;;;;;;5113497;28;19908;-56
2023/01/30 00:08:00;;;;;;;;;;;6.60;99.90;;;;;;5114399;28;19915;-57
2023/01/30 00:10:26;;;;;;;;;;;6.70;99.90;;;;;;5114285;28;20347;-56
2023/01/30 00:12:51;;;;;;;;;;;6.70;99.90;;;;;;5113408;28;19938;-55
2023/01/30 00:15:17;;;;;;;;;;;6.70;99.90;;;;;;5114034;28;19915;-56
2023/01/30 00:17:42;;;;;;;;;;;6.80;99.90;;;;;;5113959;28;21157;-54
2023/01/30 00:20:08;;;;;;;;;;;6.80;99.90;;;;;;5113163;28;19907;-55
2023/01/30 00:22:34;;;;;;;;;;;6.80;99.90;;;;;;5113865;28;19907;-56
2023/01/30 00:24:59;;;;;;;;;;;6.80;99.90;;;;;;5113763;28;19916;-55
2023/01/30 00:27:25;;;;;;;;;;;6.90;99.90;;;;;;5113209;28;20358;-57
2023/01/30 00:29:50;;;;;;;;;;;6.90;99.90;;;;;;5113680;28;19922;-57
2023/01/30 00:32:16;;;;;;;;;;;6.90;99.90;;;;;;5114699;28;19918;-56
2023/01/30 00:34:41;;;;;;;;;;;6.90;99.90;;;;;;5129617;27;19911;-56
2023/01/30 00:37:07;;;;;;;;;;;7.00;99.90;;;;;;5131748;27;19923;-55
2023/01/30 00:39:32;;;;;;;;;;;7.00;99.90;;;;;;5132413;27;19994;-55
2023/01/30 00:47:26;;;;;;;;;;;7.00;99.90;;;;;;5133446;27;20385;-54
2023/01/30 00:49:51;;;;;;;;;;;7.10;99.90;;;;;;5126137;27;19955;-56
2023/01/30 00:52:17;;;;;;;;;;;7.10;99.90;;;;;;5122777;27;19911;-56
2023/01/30 00:54:42;;;;;;;;;;;7.20;99.90;;;;;;5132578;27;19920;-56
2023/01/30 00:57:08;;;;;;;;;;;7.20;99.90;;;;;;5133404;27;19927;-55
2023/01/30 00:59:33;;;;;;;;;;;7.20;99.90;;;;;;5132999;27;19934;-56
2023/01/30 01:01:59;;;;;;;;;;;7.20;99.90;;;;;;5132701;27;19985;-56
2023/01/30 01:04:24;;;;;;;;;;;7.20;99.90;;;;;;5133446;27;19919;-53
2023/01/30 01:06:50;;;;;;;;;;;7.20;99.90;;;;;;5133593;27;19938;-56
2023/01/30 01:09:15;;;;;;;;;;;7.20;99.90;;;;;;5131245;27;20401;-56
2023/01/30 01:11:41;;;;;;;;;;;7.20;99.90;;;;;;5133306;27;19918;-57
2023/01/30 01:14:06;;;;;;;;;;;7.10;99.90;;;;;;5118631;27;20282;-57
2023/01/30 01:16:32;;;;;;;;;;;7.10;99.90;;;;;;5129963;28;20377;-56
2023/01/30 01:18:58;;;;;;;;;;;7.10;99.90;;;;;;5133485;28;19934;-56
2023/01/30 01:21:23;;;;;;;;;;;7.00;99.90;;;;;;5133738;28;20354;-55
2023/01/30 01:23:56;;;;;;;;;;;7.00;99.90;;;;;;5132241;28;20364;-56
2023/01/30 01:26:22;;;;;;;;;;;6.90;99.90;;;;;;5133165;28;19933;-58
2023/01/30 01:28:48;;;;;;;;;;;6.90;99.90;;;;;;5133298;28;20362;-56
2023/01/30 01:31:14;;;;;;;;;;;6.90;99.90;;;;;;5119685;28;19912;-55
2023/01/30 01:33:40;;;;;;;;;;;6.90;99.90;;;;;;5112931;28;19951;-56
2023/01/30 01:36:06;;;;;;;;;;;6.90;99.90;;;;;;5119443;28;19963;-56
2023/01/30 01:38:31;;;;;;;;;;;6.90;99.90;;;;;;5117855;28;20366;-56
2023/01/30 01:41:08;;;;;;;;;;;6.90;99.90;;;;;;5114530;28;19915;-57
2023/01/30 01:43:36;;;;;;;;;;;6.90;99.90;;;;;;5132831;28;19995;-58
2023/01/30 01:46:19;;;;;;;;;;;6.90;99.90;;;;;;5133338;28;20374;-55
2023/01/30 01:48:47;;;;;;;;;;;6.90;99.90;;;;;;5133462;28;19911;-55
2023/01/30 01:51:18;;;;;;;;;;;7.00;99.90;;;;;;5132239;28;20404;-56
2023/01/30 01:53:50;;;;;;;;;;;7.00;99.90;;;;;;5126420;28;19943;-58
2023/01/30 01:56:16;;;;;;;;;;;7.00;99.90;;;;;;5112469;28;20393;-56
2023/01/30 01:58:46;;;;;;;;;;;7.00;99.90;;;;;;5112092;28;19970;-56
2023/01/30 02:01:12;;;;;;;;;;;7.00;99.90;;;;;;5112753;28;19954;-55
2023/01/30 02:03:41;;;;;;;;;;;7.00;99.90;;;;;;5112726;28;19959;-55
2023/01/30 02:06:07;;;;;;;;;;;7.00;99.90;;;;;;5111932;28;20006;-57
2023/01/30 02:08:37;;;;;;;;;;;7.00;99.90;;;;;;5122813;28;19933;-57
2023/01/30 02:11:32;;;;;;;;;;;7.10;99.90;;;;;;5135835;27;19908;-57
2023/01/30 02:13:59;;;;;;;;;;;7.10;99.90;;;;;;5100767;27;19912;-55
2023/01/30 02:16:24;;;;;;;;;;;7.00;99.90;;;;;;5118415;27;20409;-57
2023/01/30 02:18:50;;;;;;;;;;;7.10;99.90;;;;;;5115549;27;19951;-59
2023/01/30 02:21:34;;;;;;;;;;;7.00;99.90;;;;;;5116405;27;20381;-58
2023/01/30 02:24:14;;;;;;;;;;;7.10;99.90;;;;;;5116227;28;19947;-57
2023/01/30 02:27:04;;;;;;;;;;;7.10;99.90;;;;;;5115545;27;19916;-56
2023/01/30 02:29:48;;;;;;;;;;;7.10;99.90;;;;;;5116294;27;19934;-56
2023/01/30 02:32:20;;;;;;;;;;;7.10;99.90;;;;;;5132511;27;19937;-56
2023/01/30 02:34:48;;;;;;;;;;;7.10;99.90;;;;;;5136301;27;19921;-60
2023/01/30 02:37:23;;;;;;;;;;;7.10;99.90;;;;;;5125690;27;19927;-57
2023/01/30 02:39:51;;;;;;;;;;;7.10;99.90;;;;;;5116262;27;20370;-59
2023/01/30 02:42:30;;;;;;;;;;;7.10;99.90;;;;;;5130234;27;19911;-57
2023/01/30 02:45:19;;;;;;;;;;;7.10;99.90;;;;;;5136514;27;19912;-58
2023/01/30 02:48:01;;;;;;;;;;;7.10;99.90;;;;;;5132872;27;20247;-58
2023/01/30 02:50:38;;;;;;;;;;;7.10;99.90;;;;;;5131667;27;19955;-60
2023/01/30 02:53:04;;;;;;;;;;;7.10;99.90;;;;;;5135899;27;19911;-58
2023/01/30 02:55:30;;;;;;;;;;;7.10;99.90;;;;;;5135272;27;19919;-59
2023/01/30 02:57:56;;;;;;;;;;;7.10;99.90;;;;;;5135749;27;19919;-59
2023/01/30 03:00:25;;;;;;;;;;;7.10;99.90;;;;;;5134654;27;19911;-60
2023/01/30 03:03:09;;;;;;;;;;;7.20;99.90;;;;;;5135959;27;19931;-64
2023/01/30 03:05:35;;;;;;;;;;;7.20;99.90;;;;;;5134226;27;19911;-58
2023/01/30 03:08:00;;;;;;;;;;;7.20;99.90;;;;;;5134792;27;20282;-60
2023/01/30 03:10:36;;;;;;;;;;;7.20;99.90;;;;;;5135597;27;19933;-59
2023/01/30 03:13:01;;;;;;;;;;;7.20;99.90;;;;;;5129933;27;19919;-61
2023/01/30 03:15:30;;;;;;;;;;;7.30;99.90;;;;;;5114623;28;19908;-59
2023/01/30 03:17:56;;;;;;;;;;;7.30;99.90;;;;;;5128524;27;19919;-59
2023/01/30 03:20:21;;;;;;;;;;;7.30;99.90;;;;;;5135015;27;19919;-60
2023/01/30 03:22:47;;;;;;;;;;;7.30;99.90;;;;;;5134044;27;19912;-60
2023/01/30 03:25:16;;;;;;;;;;;7.40;99.90;;;;;;5135285;27;19918;-60
2023/01/30 03:27:42;;;;;;;;;;;7.30;99.90;;;;;;5125610;27;20238;-61
2023/01/30 03:30:08;;;;;;;;;;;7.30;99.90;;;;;;5114248;28;19908;-60
2023/01/30 03:32:33;;;;;;;;;;;7.40;99.90;;;;;;5117318;27;19984;-61
2023/01/30 03:34:59;;;;;;;;;;;7.40;99.90;;;;;;5135053;27;19911;-62
2023/01/30 03:37:24;;;;;;;;;;;7.40;99.90;;;;;;5128147;27;19972;-60
2023/01/30 03:39:50;;;;;;;;;;;7.40;99.90;;;;;;5128048;27;19918;-62
2023/01/30 03:42:15;;;;;;;;;;;7.40;99.90;;;;;;5135206;27;19907;-57
2023/01/30 03:44:41;;;;;;;;;;;7.40;99.90;;;;;;5114446;27;19960;-62
2023/01/30 03:47:06;;;;;;;;;;;7.50;99.90;;;;;;5114664;28;20389;-58
2023/01/30 03:49:32;;;;;;;;;;;7.40;99.90;;;;;;5114433;28;19908;-59
2023/01/30 03:51:57;;;;;;;;;;;7.40;99.90;;;;;;5114095;28;19908;-59
2023/01/30 03:54:23;;;;;;;;;;;7.40;99.90;;;;;;5114257;28;20389;-59
2023/01/30 03:56:48;;;;;;;;;;;7.40;99.90;;;;;;5133493;27;20019;-58
2023/01/30 03:59:14;;;;;;;;;;;7.40;99.90;;;;;;5134939;27;20282;-58
2023/01/30 04:01:39;;;;;;;;;;;7.40;99.90;;;;;;5135002;27;19907;-58
2023/01/30 04:04:05;;;;;;;;;;;7.40;99.90;;;;;;5133963;27;19908;-60
2023/01/30 04:06:30;;;;;;;;;;;7.40;99.90;;;;;;5134935;27;20396;-58
2023/01/30 04:08:56;;;;;;;;;;;7.40;99.90;;;;;;5128685;27;19918;-58
2023/01/30 04:11:21;;;;;;;;;;;7.40;99.90;;;;;;5114062;27;19908;-57
2023/01/30 04:13:47;;;;;;;;;;;7.40;99.90;;;;;;5123439;27;20367;-58
2023/01/30 04:16:17;;;;;;;;;;;7.30;99.90;;;;;;5113970;28;19915;-57
2023/01/30 04:18:42;;;;;;;;;;;7.30;99.90;;;;;;5113253;28;19957;-56
2023/01/30 04:21:08;;;;;;;;;;;7.30;99.90;;;;;;5113919;28;19915;-58
2023/01/30 04:23:33;;;;;;;;;;;7.30;99.90;;;;;;5113901;28;19974;-57
2023/01/30 04:25:59;;;;;;;;;;;7.40;99.90;;;;;;5113047;28;19912;-57
2023/01/30 04:28:24;;;;;;;;;;;7.30;99.90;;;;;;5113765;28;19919;-58
2023/01/30 04:30:51;;;;;;;;;;;7.30;99.90;;;;;;5126385;27;19911;-57
2023/01/30 04:33:16;;;;;;;;;;;7.30;99.90;;;;;;5130678;27;19911;-56
2023/01/30 04:35:50;;;;;;;;;;;7.30;99.90;;;;;;5130066;27;19912;-56
2023/01/30 04:38:15;;;;;;;;;;;7.20;99.90;;;;;;5113825;27;19920;-58
2023/01/30 04:40:41;;;;;;;;;;;7.10;99.90;;;;;;5121032;27;19929;-58
2023/01/30 04:43:06;;;;;;;;;;;7.10;99.90;;;;;;5133505;27;19912;-58
2023/01/30 04:45:32;;;;;;;;;;;7.10;99.90;;;;;;5134200;27;19914;-57
2023/01/30 04:47:57;;;;;;;;;;;7.00;99.90;;;;;;5133142;27;20333;-58
2023/01/30 04:50:22;;;;;;;;;;;7.00;99.90;;;;;;5133967;27;19907;-57
2023/01/30 04:52:48;;;;;;;;;;;7.00;99.90;;;;;;5128836;27;19918;-57
2023/01/30 04:55:13;;;;;;;;;;;7.00;99.90;;;;;;5112094;28;20392;-55
2023/01/30 04:57:39;;;;;;;;;;;7.00;99.90;;;;;;5113367;28;19924;-57
2023/01/30 05:00:05;;;;;;;;;;;7.00;99.90;;;;;;5112530;28;19915;-61
2023/01/30 05:02:30;;;;;;;;;;;7.10;99.90;;;;;;5113449;28;20097;-56
2023/01/30 05:04:56;;;;;;;;;;;7.00;99.90;;;;;;5113250;28;19915;-58
2023/01/30 05:07:21;;;;;;;;;;;7.00;99.90;;;;;;5113256;27;19977;-56
2023/01/30 05:09:46;;;;;;;;;;;7.00;99.90;;;;;;5113452;28;19915;-58
2023/01/30 05:12:12;;;;;;;;;;;7.00;99.90;;;;;;5127857;27;19911;-56
2023/01/30 05:14:40;;;;;;;;;;;7.00;99.90;;;;;;5132352;27;20255;-57
2023/01/30 05:17:05;;;;;;;;;;;6.90;99.90;;;;;;5133553;27;19915;-56
2023/01/30 05:19:31;;;;;;;;;;;6.90;99.90;;;;;;5130888;28;19927;-56
2023/01/30 05:21:56;;;;;;;;;;;6.90;99.90;;;;;;5112256;28;19916;-56
2023/01/30 05:24:22;;;;;;;;;;;6.90;99.90;;;;;;5130533;28;19943;-56
2023/01/30 05:26:47;;;;;;;;;;;6.90;99.90;;;;;;5133405;28;20333;-58
2023/01/30 05:29:12;;;;;;;;;;;6.90;99.90;;;;;;5132261;28;19912;-57
2023/01/30 05:31:38;;;;;;;;;;;6.80;99.90;;;;;;5113268;28;19912;-55
2023/01/30 05:34:03;;;;;;;;;;;6.80;99.90;;;;;;5112766;28;19912;-57
2023/01/30 05:36:29;;;;;;;;;;;6.80;99.90;;;;;;5112441;28;20374;-56
2023/01/30 05:38:54;;;;;;;;;;;6.90;99.90;;;;;;5122933;28;19957;-56
2023/01/30 05:41:20;;;;;;;;;;;6.90;99.90;;;;;;5115249;28;19914;-57
2023/01/30 05:43:49;;;;;;;;;;;6.90;99.90;;;;;;5116603;28;19939;-55
2023/01/30 05:46:15;;;;;;;;;;;6.90;99.90;;;;;;5136500;27;19915;-55
2023/01/30 05:48:40;;;;;;;;;;;6.90;99.90;;;;;;5137514;27;19911;-56
2023/01/30 05:51:06;;;;;;;;;;;6.80;99.90;;;;;;5119892;27;19912;-56
2023/01/30 05:53:33;;;;;;;;;;;6.80;99.90;;;;;;5117001;28;20002;-54
2023/01/30 05:56:01;;;;;;;;;;;6.70;99.90;;;;;;5126174;27;19927;-57
2023/01/30 05:58:27;;;;;;;;;;;6.70;99.90;;;;;;5125831;27;20278;-57
2023/01/30 06:00:53;;;;;;;;;;;6.60;99.90;;;;;;5124643;27;19957;-54
2023/01/30 06:03:19;;;;;;;;;;;6.60;99.90;;;;;;5124925;27;20292;-57
2023/01/30 06:05:44;;;;;;;;;;;6.60;99.90;;;;;;5126285;27;20321;-56
2023/01/30 06:08:10;;;;;;;;;;;6.60;99.90;;;;;;5124294;27;19918;-57
2023/01/30 06:10:35;;;;;;;;;;;6.60;99.90;;;;;;5125085;27;20002;-55
2023/01/30 06:13:01;;;;;;;;;;;6.60;99.90;;;;;;5124980;27;19961;-57
2023/01/30 06:15:26;;;;;;;;;;;6.50;99.90;;;;;;5126043;27;19919;-56
2023/01/30 06:17:52;;;;;;;;;;;6.50;99.90;;;;;;5122878;27;19919;-58
2023/01/30 06:20:17;;;;;;;;;;;6.40;99.90;;;;;;5124070;27;19918;-56
2023/01/30 06:22:43;;;;;;;;;;;6.40;99.90;;;;;;5123754;27;19918;-58
2023/01/30 06:25:08;;;;;;;;;;;6.40;99.90;;;;;;5124360;27;20342;-57
2023/01/30 06:27:34;;;;;;;;;;;6.40;99.90;;;;;;5123779;27;19911;-56
2023/01/30 06:30:00;;;;;;;;;;;6.40;99.90;;;;;;5124764;27;20014;-56
2023/01/30 06:32:25;;;;;;;;;;;6.40;99.90;;;;;;5125190;27;19908;-56
2023/01/30 06:34:51;;;;;;;;;;;6.40;99.90;;;;;;5123337;27;19912;-55
2023/01/30 06:37:16;;;;;;;;;;;6.50;99.90;;;;;;5124282;27;19950;-56
2023/01/30 06:39:42;;;;;;;;;;;6.60;99.90;;;;;;5123880;27;19963;-57
2023/01/30 06:42:07;;;;;;;;;;;6.50;99.90;;;;;;5124381;27;20261;-57
2023/01/30 06:44:32;;;;;;;;;;;6.50;99.90;;;;;;5124364;27;19912;-56
2023/01/30 06:46:58;;;;;;;;;;;6.60;99.90;;;;;;5123448;27;20285;-57
2023/01/30 06:49:23;;;;;;;;;;;6.60;99.90;;;;;;5125470;27;19919;-57
2023/01/30 06:51:49;;;;;;;;;;;6.60;99.90;;;;;;5122652;27;20353;-57
2023/01/30 06:54:14;;;;;;;;;;;6.60;99.90;;;;;;5124251;27;20026;-57
2023/01/30 06:56:40;;;;;;;;;;;6.60;99.90;;;;;;5124109;27;19930;-57
2023/01/30 06:59:05;;;;;;;;;;;6.60;99.90;;;;;;5122942;27;19912;-57
2023/01/30 07:01:31;;;;;;;;;;;6.60;99.90;;;;;;5124535;27;20036;-56
2023/01/30 07:03:56;;;;;;;;;;;6.60;99.90;;;;;;5124019;27;20369;-55
2023/01/30 07:06:22;;;;;;;;;;;6.60;99.90;;;;;;5135981;27;19911;-56
2023/01/30 07:08:47;;;;;;;;;;;6.60;99.90;;;;;;5133583;27;19917;-55
2023/01/30 07:11:12;;;;;;;;;;;6.60;99.90;;;;;;5135849;27;19916;-56
2023/01/30 07:13:38;;;;;;;;;;;6.60;99.90;;;;;;5122745;27;19912;-57
2023/01/30 07:16:04;;;;;;;;;;;6.60;99.90;;;;;;5115098;27;19912;-57
2023/01/30 07:18:29;;;;;;;;;;;6.60;99.90;;;;;;5115188;28;19999;-56
2023/01/30 07:20:54;;;;;;;;;;;6.60;99.90;;;;;;5114441;27;19962;-57
2023/01/30 07:23:20;;;;;;;;;;;6.70;99.90;;;;;;5124374;27;19972;-57
2023/01/30 07:25:45;;;;;;;;;;;6.70;99.90;;;;;;5135755;27;20365;-58
2023/01/30 07:28:11;;;;;;;;;;;6.60;99.90;;;;;;5125049;27;19916;-56
2023/01/30 07:30:36;;;;;;;;;;;6.60;99.90;;;;;;5135679;27;19952;-57
2023/01/30 07:33:03;;;;;;;;;;;6.60;99.90;;;;;;5128013;27;20362;-57
2023/01/30 07:35:29;;;;;;;;;;;6.60;99.90;;;;;;5114058;28;20278;-57
2023/01/30 07:37:55;;;;;;;;;;;6.60;99.90;;;;;;5123728;27;19919;-55
2023/01/30 07:40:21;;;;;;;;;;;6.60;99.90;;;;;;5118318;27;19907;-54
2023/01/30 07:42:56;;;;;;;;;;;6.60;99.90;;;;;;5117301;27;20384;-55
2023/01/30 07:45:22;;;;;;;;;;;6.50;99.90;;;;;;5135517;27;19907;-56
2023/01/30 07:47:48;;;;;;;;;;;6.60;99.90;;;;;;5135292;27;19908;-56
2023/01/30 07:50:13;;;;;;;;;;;6.50;99.90;;;;;;5134356;27;19907;-56
2023/01/30 07:52:39;;;;;;;;;;;6.50;99.90;;;;;;5115044;27;20419;-55
2023/01/30 07:55:04;;;;;;;;;;;6.60;99.90;;;;;;5114228;28;19919;-55
2023/01/30 07:57:30;;;;;;;;;;;6.60;99.90;;;;;;5113465;28;19916;-56
2023/01/30 07:59:55;;;;;;;;;;;6.60;99.90;;;;;;5114461;28;19965;-53
2023/01/30 08:02:21;;;;;;;;;;;6.60;99.90;;;;;;5114388;28;19990;-53
2023/01/30 08:04:46;;;;;;;;;;;6.70;99.90;;;;;;5123996;27;19911;-55
2023/01/30 08:07:12;;;;;;;;;;;6.70;99.90;;;;;;5116125;27;19915;-56
2023/01/30 08:09:37;;;;;;;;;;;6.80;99.90;;;;;;5114204;27;19912;-55
2023/01/30 08:12:03;;;;;;;;;;;6.80;99.90;;;;;;5113333;28;19912;-56
2023/01/30 08:14:28;;;;;;;;;;;6.90;99.90;;;;;;5115166;27;20473;-56
2023/01/30 08:16:55;;;;;;;;;;;6.90;99.90;;;;;;5124533;27;19915;-56
2023/01/30 08:19:20;;;;;;;;;;;6.90;99.90;;;;;;5121351;27;19926;-56
2023/01/30 08:21:46;;;;;;;;;;;6.90;99.90;;;;;;5123738;27;19911;-56
2023/01/30 08:24:11;;;;;;;;;;;6.90;99.90;;;;;;5121719;27;20548;-56
2023/01/30 08:26:37;;;;;;;;;;;6.90;99.90;;;;;;5122018;27;20295;-56
2023/01/30 08:29:02;;;;;;;;;;;6.90;99.90;;;;;;5123860;27;20367;-57
2023/01/30 08:31:28;;;;;;;;;;;6.90;99.90;;;;;;5121248;27;20378;-56
2023/01/30 08:33:53;;;;;;;;;;;6.90;99.90;;;;;;5122301;27;19907;-55
2023/01/30 08:36:19;;;;;;;;;;;6.90;99.90;;;;;;5123418;27;19916;-55
2023/01/30 08:38:44;;;;;;;;;;;6.90;99.90;;;;;;5120166;27;19998;-55
2023/01/30 08:41:10;;;;;;;;;;;6.90;99.90;;;;;;5113546;28;20267;-55
2023/01/30 08:43:35;;;;;;;;;;;6.90;99.90;;;;;;5113491;28;19908;-56
2023/01/30 08:46:01;;;;;;;;;;;6.90;99.90;;;;;;5112688;28;19927;-56
2023/01/30 08:48:26;;;;;;;;;;;6.90;99.90;;;;;;5113465;28;19914;-57
2023/01/30 08:50:52;;;;;;;;;;;6.90;99.90;;;;;;5113373;28;20267;-56
2023/01/30 08:53:18;;;;;;;;;;;6.90;99.90;;;;;;5126606;27;19973;-55
2023/01/30 08:55:44;;;;;;;;;;;7.00;99.90;;;;;;5133617;27;19940;-54
2023/01/30 08:58:09;;;;;;;;;;;7.00;99.90;;;;;;5132487;27;20290;-55
2023/01/30 09:00:35;;;;;;;;;;;7.00;99.90;;;;;;5130102;27;19959;-55
2023/01/30 09:03:01;;;;;;;;;;;7.10;99.90;;;;;;5133786;27;19911;-56
2023/01/30 09:05:27;;;;;;;;;;;7.10;99.90;;;;;;5133835;27;19913;-54
2023/01/30 09:07:52;;;;;;;;;;;7.10;99.90;;;;;;5119667;27;19907;-54
2023/01/30 09:10:18;;;;;;;;;;;7.10;99.90;;;;;;5133478;27;19907;-55
2023/01/30 09:12:43;;;;;;;;;;;7.10;99.90;;;;;;5122519;27;19947;-56
2023/01/30 09:15:09;;;;;;;;;;;7.20;99.90;;;;;;5111496;28;20263;-56
2023/01/30 09:17:35;;;;;;;;;;;7.20;99.90;;;;;;5112576;28;19916;-56
2023/01/30 09:20:00;;;;;;;;;;;7.30;99.90;;;;;;5112583;28;19908;-55
2023/01/30 09:22:25;;;;;;;;;;;7.30;99.90;;;;;;5112403;28;19915;-56
2023/01/30 09:24:51;;;;;;;;;;;7.30;99.90;;;;;;5122700;28;20437;-55
2023/01/30 09:27:16;;;;;;;;;;;7.40;99.90;;;;;;5132857;28;19994;-56
2023/01/30 09:29:42;;;;;;;;;;;7.40;99.90;;;;;;5133433;28;19930;-55
2023/01/30 09:32:07;;;;;;;;;;;7.40;99.90;;;;;;5133561;28;19908;-57
2023/01/30 09:34:33;;;;;;;;;;;7.40;99.90;;;;;;5132758;28;19915;-55
2023/01/30 09:36:59;;;;;;;;;;;7.40;99.90;;;;;;5133457;28;20270;-56
2023/01/30 09:39:24;;;;;;;;;;;7.40;99.90;;;;;;5133599;28;20119;-55
2023/01/30 09:41:59;;;;;;;;;;;7.50;99.90;;;;;;5132656;28;20371;-51
2023/01/30 09:44:43;;;;;;;;;;;7.50;99.90;;;;;;5133359;28;19915;-55
2023/01/30 09:47:32;;;;;;;;;;;7.50;99.90;;;;;;5133485;28;19908;-55
2023/01/30 09:50:16;;;;;;;;;;;7.60;99.90;;;;;;5121159;28;19908;-55
2023/01/30 09:52:55;;;;;;;;;;;7.70;99.90;;;;;;5133168;28;19950;-55
2023/01/30 09:55:22;;;;;;;;;;;7.70;99.90;;;;;;5132147;28;20014;-56
2023/01/30 09:57:48;;;;;;;;;;;7.80;99.90;;;;;;5133133;28;20259;-54
2023/01/30 10:00:13;;;;;;;;;;;7.80;99.90;;;;;;5133180;28;19907;-55
2023/01/30 10:02:48;;;;;;;;;;;7.90;99.90;;;;;;5112050;28;19922;-55
2023/01/30 10:05:13;;;;;;;;;;;7.80;99.90;;;;;;5132265;28;20297;-49
2023/01/30 10:07:45;;;;;;;;;;;7.50;99.90;;;;;;5133286;28;19914;-52
2023/01/30 10:10:21;;;;;;;;;;;7.20;99.90;;;;;;5132187;28;19911;-54
2023/01/30 10:12:57;;;;;;;;;;;6.90;99.90;;;;;;5133358;28;19907;-47
2023/01/30 10:15:42;;;;;;;;;;;6.80;99.90;;;;;;5133251;28;20401;-50
2023/01/30 10:18:34;;;;;;;;;;;6.80;99.90;;;;;;5114056;28;19915;-49
2023/01/30 10:21:03;;;;;;;;;;;6.70;99.90;;;;;;5110627;28;20378;-52
2023/01/30 10:23:43;;;;;;;;;;;6.70;99.90;;;;;;5132262;28;20346;-54
2023/01/30 10:26:19;;;;;;;;;;;6.70;99.90;;;;;;5133012;28;19909;-56
2023/01/30 10:28:53;;;;;;;;;;;6.80;99.90;;;;;;5133073;28;19907;-52
2023/01/30 10:31:21;;;;;;;;;;;6.90;99.90;;;;;;5117652;28;19915;-45
2023/01/30 10:33:56;;;;;;;;;;;7.00;99.90;;;;;;5116000;28;19908;-58
2023/01/30 10:36:24;;;;;;;;;;;7.20;99.90;;;;;;5115884;28;19908;-57
2023/01/30 10:38:51;;;;;;;;;;;7.30;99.90;;;;;;5115403;28;19960;-56
2023/01/30 10:41:19;;;;;;;;;;;7.40;99.90;;;;;;5116208;28;20028;-59
2023/01/30 10:43:49;;;;;;;;;;;7.50;99.90;;;;;;5097636;28;20274;-56
2023/01/30 10:46:25;;;;;;;;;;;7.60;99.90;;;;;;5115045;28;20281;-54
2023/01/30 10:48:53;;;;;;;;;;;7.70;99.90;;;;;;5115842;28;20362;-57
2023/01/30 10:51:24;;;;;;;;;;;7.70;99.90;;;;;;5115809;28;20409;-56
2023/01/30 10:54:02;;;;;;;;;;;7.70;99.90;;;;;;5135770;27;19961;-56
2023/01/30 10:56:27;;;;;;;;;;;7.60;99.90;;;;;;5136044;27;19919;-51
2023/01/30 10:58:56;;;;;;;;;;;7.40;99.90;;;;;;5135531;27;20214;-44
2023/01/30 11:01:30;;;;;;;;;;;7.10;99.90;;;;;;5135542;27;19914;-42
2023/01/30 11:04:00;;;;;;;;;;;6.90;99.90;;;;;;5134211;27;19911;-43
2023/01/30 11:06:26;;;;;;;;;;;6.70;99.90;;;;;;5135502;27;19929;-43
2023/01/30 11:08:52;;;;;;;;;;;6.50;99.90;;;;;;5135863;27;20358;-42
2023/01/30 11:11:21;;;;;;;;;;;6.30;99.90;;;;;;5136057;27;19998;-42
2023/01/30 11:13:46;;;;;;;;;;;6.20;99.90;;;;;;5135188;27;20012;-43
2023/01/30 11:16:12;;;;;;;;;;;6.10;99.90;;;;;;5129128;27;19931;-44
2023/01/30 11:18:48;;;;;;;;;;;6.20;99.90;;;;;;5112564;27;19968;-42
2023/01/30 11:21:19;;;;;;;;;;;6.30;99.90;;;;;;5112661;27;19916;-43
2023/01/30 11:23:45;;;;;;;;;;;6.40;99.90;;;;;;5126195;27;19915;-42
2023/01/30 11:26:22;;;;;;;;;;;6.60;99.90;;;;;;5113583;28;19908;-44
2023/01/30 11:28:47;;;;;;;;;;;6.70;99.90;;;;;;5126184;27;19912;-44
2023/01/30 11:31:15;;;;;;;;;;;6.80;99.90;;;;;;5123217;27;19918;-43
2023/01/30 11:33:41;;;;;;;;;;;6.90;99.90;;;;;;5127582;27;19919;-43
2023/01/30 11:36:22;;;;;;;;;;;7.00;99.90;;;;;;5129811;27;19912;-43
2023/01/30 11:39:00;;;;;;;;;;;7.10;99.90;;;;;;5115405;27;19952;-45
2023/01/30 11:41:26;;;;;;;;;;;7.30;99.90;;;;;;5114091;28;20362;-44
2023/01/30 11:43:58;;;;;;;;;;;7.40;99.90;;;;;;5114348;28;19919;-42
2023/01/30 11:46:23;;;;;;;;;;;7.50;99.90;;;;;;5119746;27;19908;-44
2023/01/30 11:48:54;;;;;;;;;;;7.60;99.90;;;;;;5118107;27;20269;-43
2023/01/30 11:51:22;;;;;;;;;;;7.50;99.90;;;;;;5121768;27;19911;-42
2023/01/30 11:53:49;;;;;;;;;;;7.50;99.90;;;;;;5126599;27;20049;-42
2023/01/30 11:56:21;;;;;;;;;;;7.40;99.90;;;;;;5114504;27;19920;-43
2023/01/30 11:58:52;;;;;;;;;;;7.50;99.90;;;;;;5125522;27;19911;-44
2023/01/30 12:01:18;;;;;;;;;;;7.50;99.90;;;;;;5118428;27;19912;-42
2023/01/30 12:03:46;;;;;;;;;;;7.40;99.90;;;;;;5133927;27;19914;-43
2023/01/30 12:06:19;;;;;;;;;;;7.40;99.90;;;;;;5116613;27;19939;-42
2023/01/30 12:08:45;;;;;;;;;;;7.40;99.90;;;;;;5132811;27;19911;-43
2023/01/30 12:11:23;;;;;;;;;;;7.50;99.90;;;;;;5113685;28;19964;-43
2023/01/30 12:13:49;;;;;;;;;;;7.70;99.90;;;;;;5114267;28;20286;-43
2023/01/30 12:16:27;;;;;;;;;;;8.00;99.90;;;;;;5113191;28;19908;-42
2023/01/30 12:19:01;;;;;;;;;;;8.20;99.90;;;;;;5114114;28;20006;-42
2023/01/30 12:21:34;;;;;;;;;;;8.20;99.90;;;;;;5126400;27;19912;-43
2023/01/30 12:24:18;;;;;;;;;;;8.20;99.90;;;;;;5113246;28;19912;-42
2023/01/30 12:26:59;;;;;;;;;;;8.10;99.90;;;;;;5126875;27;19907;-42
2023/01/30 12:29:29;;;;;;;;;;;8.00;99.90;;;;;;5133242;27;20348;-43
2023/01/30 12:31:58;;;;;;;;;;;8.00;99.90;;;;;;5121000;27;19912;-43
2023/01/30 12:34:23;;;;;;;;;;;8.00;99.90;;;;;;5131399;27;19976;-43
2023/01/30 12:36:53;;;;;;;;;;;8.00;99.90;;;;;;5130798;27;20316;-42
2023/01/30 12:39:21;;;;;;;;;;;7.90;99.90;;;;;;5116648;27;20000;-44
2023/01/30 12:41:55;;;;;;;;;;;7.90;99.90;;;;;;5129739;27;19907;-42
2023/01/30 12:44:30;;;;;;;;;;;7.90;99.90;;;;;;5130010;27;19911;-43
2023/01/30 12:47:05;;;;;;;;;;;7.90;99.90;;;;;;5113620;28;19914;-43
2023/01/30 12:49:30;;;;;;;;;;;8.00;99.90;;;;;;5113581;28;20435;-42
2023/01/30 12:52:02;;;;;;;;;;;8.00;99.90;;;;;;5112777;28;19911;-42
2023/01/30 12:54:30;;;;;;;;;;;8.10;99.90;;;;;;5112613;28;20006;-43
2023/01/30 12:56:56;;;;;;;;;;;8.20;99.90;;;;;;5120246;27;20003;-42
2023/01/30 12:59:33;;;;;;;;;;;8.10;99.90;;;;;;5133251;27;19995;-44
2023/01/30 13:02:07;;;;;;;;;;;8.20;99.90;;;;;;5115624;28;19918;-44
2023/01/30 13:04:42;;;;;;;;;;;8.30;99.90;;;;;;5113411;28;19916;-43
2023/01/30 13:07:15;;;;;;;;;;;8.30;99.90;;;;;;5112441;28;20282;-44
2023/01/30 13:10:00;;;;;;;;;;;8.30;99.90;;;;;;5113351;28;20393;-44
2023/01/30 13:12:26;;;;;;;;;;;8.20;99.90;;;;;;5111963;28;20342;-43
2023/01/30 13:15:14;;;;;;;;;;;8.20;99.90;;;;;;5127716;27;19982;-43
2023/01/30 13:17:45;;;;;;;;;;;8.20;99.90;;;;;;5119954;27;19916;-45
2023/01/30 13:20:27;;;;;;;;;;;8.20;99.90;;;;;;5122553;28;20018;-42
2023/01/30 13:23:11;;;;;;;;;;;8.20;99.90;;;;;;5130893;28;20032;-43
2023/01/30 13:25:41;;;;;;;;;;;8.20;99.90;;;;;;5128651;28;19915;-42
2023/01/30 13:28:18;;;;;;;;;;;8.20;99.90;;;;;;5130731;28;20449;-43
2023/01/30 13:30:45;;;;;;;;;;;8.20;99.90;;;;;;5130076;28;20259;-43
2023/01/30 13:33:12;;;;;;;;;;;8.20;99.90;;;;;;5133162;28;20278;-42
2023/01/30 13:35:46;;;;;;;;;;;8.20;99.90;;;;;;5132566;28;19911;-43
2023/01/30 13:38:17;;;;;;;;;;;8.20;99.90;;;;;;5133332;28;20331;-44
2023/01/30 13:40:43;;;;;;;;;;;8.20;99.90;;;;;;5132876;28;19916;-43
2023/01/30 13:43:24;;;;;;;;;;;8.20;99.90;;;;;;5133630;28;19912;-44
2023/01/30 13:45:51;;;;;;;;;;;8.20;99.90;;;;;;5132878;28;19919;-43
2023/01/30 13:48:17;;;;;;;;;;;8.20;99.90;;;;;;5132825;28;19908;-43
2023/01/30 13:50:49;;;;;;;;;;;8.20;99.90;;;;;;5133521;28;19912;-43
2023/01/30 13:53:20;;;;;;;;;;;8.10;99.90;;;;;;5133334;28;19908;-43
2023/01/30 13:55:45;;;;;;;;;;;8.10;99.90;;;;;;5132489;28;20374;-42
2023/01/30 13:58:13;;;;;;;;;;;8.10;99.90;;;;;;5133312;28;19922;-43
2023/01/30 14:00:50;;;;;;;;;;;8.10;99.90;;;;;;5133365;28;19907;-44
2023/01/30 14:03:21;;;;;;;;;;;8.10;99.90;;;;;;5132552;28;19930;-43
2023/01/30 14:05:50;;;;;;;;;;;8.10;99.90;;;;;;5134023;27;19915;-43
2023/01/30 14:08:42;;;;;;;;;;;8.10;99.90;;;;;;5137220;27;19914;-44
2023/01/30 14:11:29;;;;;;;;;;;8.10;99.90;;;;;;5132011;27;19911;-43
2023/01/30 14:13:59;;;;;;;;;;;8.20;99.90;;;;;;5136381;27;19908;-44
2023/01/30 14:16:38;;;;;;;;;;;8.10;99.90;;;;;;5115722;28;19916;-44
2023/01/30 14:19:33;;;;;;;;;;;8.20;99.90;;;;;;5116499;28;19907;-43
2023/01/30 14:22:00;;;;;;;;;;;8.30;99.90;;;;;;5098250;28;19994;-43
2023/01/30 14:24:26;;;;;;;;;;;8.30;99.90;;;;;;5115767;28;19931;-44
2023/01/30 14:26:59;;;;;;;;;;;8.40;99.90;;;;;;5116348;28;20374;-42
2023/01/30 14:29:36;;;;;;;;;;;8.50;99.90;;;;;;5116383;28;19908;-42
2023/01/30 14:32:11;;;;;;;;;;;8.40;99.90;;;;;;5116223;28;19912;-45
2023/01/30 14:34:43;;;;;;;;;;;8.40;99.90;;;;;;5116339;28;19907;-43
2023/01/30 14:37:24;;;;;;;;;;;8.30;99.90;;;;;;5125346;27;19915;-43
2023/01/30 14:39:51;;;;;;;;;;;8.30;99.90;;;;;;5129442;27;20315;-43
2023/01/30 14:42:27;;;;;;;;;;;8.30;99.90;;;;;;5136606;27;19908;-43
2023/01/30 14:45:14;;;;;;;;;;;8.30;99.90;;;;;;5135359;27;20010;-43